Time;durP1;ratioP1;P1;durP2;ratioP2;P2;SDS_P1;SDS_P2;PMS_P1;PMS_P2;Temp;Humidity;BMP_temperature;BMP_pressure;BME280_temperature;BME280_humidity;BME280_pressure;Samples;Min_cycle;Max_cycle;Signal;HPM_P1;HPM_P2
2022/02/18 00:01:54;;;;;;;20.33;4.45;;;8.80;99.90;;;;;;5034941;28;20049;-81
2022/02/18 00:04:19;;;;;;;20.48;4.28;;;8.80;99.90;;;;;;5034801;28;20025;-82
2022/02/18 00:06:45;;;;;;;24.90;4.63;;;8.80;99.90;;;;;;5052956;28;20385;-82
2022/02/18 00:09:10;;;;;;;17.02;4.75;;;8.80;99.90;;;;;;5035349;28;20032;-82
2022/02/18 00:11:36;;;;;;;28.92;5.28;;;8.80;99.90;;;;;;5034965;28;20028;-82
2022/02/18 00:14:02;;;;;;;22.90;4.82;;;8.80;99.90;;;;;;5034964;28;20504;-82
2022/02/18 00:16:27;;;;;;;26.65;5.15;;;8.80;99.90;;;;;;5035027;28;20029;-82
2022/02/18 00:18:53;;;;;;;23.30;4.68;;;8.80;99.90;;;;;;5035001;28;20017;-81
2022/02/18 00:21:19;;;;;;;25.95;4.78;;;8.80;99.90;;;;;;5034894;28;20021;-82
2022/02/18 00:23:44;;;;;;;24.90;4.30;;;8.80;99.90;;;;;;5034987;28;20035;-82
2022/02/18 00:26:11;;;;;;;18.30;4.25;;;8.80;99.90;;;;;;5034888;28;20025;-82
2022/02/18 00:28:36;;;;;;;18.45;3.95;;;8.80;99.90;;;;;;5034813;28;20025;-82
2022/02/18 00:31:02;;;;;;;19.38;4.47;;;8.80;99.90;;;;;;5052894;28;20048;-82
2022/02/18 00:33:28;;;;;;;22.02;4.57;;;8.80;99.90;;;;;;5034834;28;20040;-82
2022/02/18 00:35:54;;;;;;;18.58;4.43;;;8.80;99.90;;;;;;5034917;28;20033;-82
2022/02/18 00:38:23;;;;;;;24.23;5.47;;;8.80;99.90;;;;;;5034865;28;20496;-81
2022/02/18 00:40:49;;;;;;;23.38;5.10;;;8.80;99.90;;;;;;5035276;28;20025;-82
2022/02/18 00:43:14;;;;;;;20.02;4.20;;;8.80;99.90;;;;;;5034826;28;20495;-82
2022/02/18 00:45:40;;;;;;;25.02;5.07;;;8.80;99.90;;;;;;5035067;28;20076;-82
2022/02/18 00:48:06;;;;;;;17.02;4.22;;;8.80;99.90;;;;;;5034665;28;20374;-82
2022/02/18 00:50:32;;;;;;;26.40;4.60;;;8.70;99.90;;;;;;5034675;28;20051;-82
2022/02/18 00:52:57;;;;;;;19.77;4.47;;;8.80;99.90;;;;;;5052389;28;20531;-82
2022/02/18 00:55:23;;;;;;;21.33;4.20;;;8.70;99.90;;;;;;5034576;28;20492;-82
2022/02/18 00:57:49;;;;;;;19.58;4.25;;;8.70;99.90;;;;;;5034605;28;20049;-82
2022/02/18 01:00:16;;;;;;;20.00;4.82;;;8.70;99.90;;;;;;5034709;28;20021;-82
2022/02/18 01:02:44;;;;;;;19.45;4.95;;;8.70;99.90;;;;;;5034407;28;20051;-82
2022/02/18 01:05:10;;;;;;;20.95;4.55;;;8.70;99.90;;;;;;5034551;28;20481;-81
2022/02/18 01:07:36;;;;;;;18.73;4.15;;;8.70;99.90;;;;;;5052362;28;20033;-81
2022/02/18 01:10:04;;;;;;;20.75;3.60;;;8.70;99.90;;;;;;5034560;28;20025;-82
2022/02/18 01:12:30;;;;;;;22.10;4.57;;;8.70;99.90;;;;;;5034425;28;20117;-82
2022/02/18 01:14:56;;;;;;;19.08;4.50;;;8.70;99.90;;;;;;5035107;28;20112;-82
2022/02/18 01:17:21;;;;;;;21.63;4.57;;;8.70;99.90;;;;;;5055935;28;20480;-82
2022/02/18 01:19:47;;;;;;;19.63;4.50;;;8.70;99.90;;;;;;5037999;28;20021;-82
2022/02/18 01:22:13;;;;;;;17.77;4.18;;;8.70;99.90;;;;;;5055757;28;20021;-82
2022/02/18 01:24:38;;;;;;;18.02;3.70;;;8.70;99.90;;;;;;5037838;28;20053;-82
2022/02/18 01:27:04;;;;;;;21.83;4.72;;;8.70;99.90;;;;;;5037809;28;20036;-82
2022/02/18 01:29:30;;;;;;;20.92;4.85;;;8.70;99.90;;;;;;5055674;28;20066;-82
2022/02/18 01:31:55;;;;;;;17.58;4.25;;;8.70;99.90;;;;;;5037670;28;20391;-82
2022/02/18 01:34:21;;;;;;;17.08;3.75;;;8.70;99.90;;;;;;5037807;28;20079;-82
2022/02/18 01:36:47;;;;;;;18.00;3.28;;;8.70;99.90;;;;;;5055564;28;20021;-82
2022/02/18 01:39:12;;;;;;;19.52;4.20;;;8.70;99.90;;;;;;5037624;28;20051;-82
2022/02/18 01:41:38;;;;;;;16.63;3.60;;;8.70;99.90;;;;;;5037480;28;20021;-83
2022/02/18 01:44:05;;;;;;;15.00;3.80;;;8.70;99.90;;;;;;5037463;28;20032;-82
2022/02/18 01:46:32;;;;;;;22.55;4.50;;;8.70;99.90;;;;;;5037414;28;20120;-82
2022/02/18 01:48:58;;;;;;;17.73;3.65;;;8.70;99.90;;;;;;5037418;28;20052;-81
2022/02/18 01:51:25;;;;;;;21.08;4.22;;;8.70;99.90;;;;;;5037346;28;20029;-82
2022/02/18 01:53:52;;;;;;;18.95;4.28;;;8.70;99.90;;;;;;5037068;28;20049;-82
2022/02/18 01:56:20;;;;;;;19.60;4.05;;;8.60;99.90;;;;;;5037307;28;20084;-82
2022/02/18 01:58:45;;;;;;;19.90;3.72;;;8.70;99.90;;;;;;5037199;28;20025;-82
2022/02/18 02:01:11;;;;;;;16.52;3.42;;;8.60;99.90;;;;;;5037007;28;20075;-82
2022/02/18 02:03:37;;;;;;;20.25;4.22;;;8.60;99.90;;;;;;5037136;28;20025;-82
2022/02/18 02:06:04;;;;;;;16.80;3.90;;;8.70;99.90;;;;;;5037076;28;20025;-82
2022/02/18 02:08:33;;;;;;;22.17;4.68;;;8.70;99.90;;;;;;5037123;28;20124;-82
2022/02/18 02:10:59;;;;;;;17.05;3.90;;;8.60;99.90;;;;;;5036932;28;20111;-82
2022/02/18 02:13:33;;;;;;;15.55;3.88;;;8.60;99.90;;;;;;5036901;28;20136;-82
2022/02/18 02:15:59;;;;;;;14.82;3.97;;;8.60;99.90;;;;;;5036920;28;20075;-82
2022/02/18 02:21:50;;;;;;;18.20;3.92;;;8.60;99.90;;;;;;5054849;28;20106;-82
2022/02/18 02:24:17;;;;;;;15.73;3.83;;;8.60;99.90;;;;;;5036652;28;20025;-81
2022/02/18 02:26:43;;;;;;;17.40;3.35;;;8.60;99.90;;;;;;5036490;28;20029;-81
2022/02/18 02:29:13;;;;;;;20.13;3.80;;;8.60;99.90;;;;;;5036586;28;20040;-82
2022/02/18 02:31:40;;;;;;;17.15;4.15;;;8.60;99.90;;;;;;5036549;28;20021;-82
2022/02/18 02:34:06;;;;;;;19.58;4.05;;;8.60;99.90;;;;;;5036586;28;20025;-82
2022/02/18 02:36:32;;;;;;;16.73;3.53;;;8.60;99.90;;;;;;5036464;28;20048;-82
2022/02/18 02:38:58;;;;;;;23.25;3.85;;;8.60;99.90;;;;;;5036468;28;20028;-81
2022/02/18 02:41:23;;;;;;;16.23;3.70;;;8.60;99.90;;;;;;5054299;28;20031;-81
2022/02/18 02:43:49;;;;;;;14.38;3.67;;;8.60;99.90;;;;;;5036960;28;20484;-81
2022/02/18 02:46:15;;;;;;;16.92;3.55;;;8.60;99.90;;;;;;5036314;28;20029;-81
2022/02/18 02:48:42;;;;;;;19.33;3.92;;;8.60;99.90;;;;;;5036309;28;20158;-82
2022/02/18 02:51:08;;;;;;;15.18;3.22;;;8.60;99.90;;;;;;5054025;28;20029;-81
2022/02/18 02:53:34;;;;;;;11.43;3.35;;;8.60;99.90;;;;;;5036116;28;20021;-81
2022/02/18 02:56:00;;;;;;;17.48;4.22;;;8.60;99.90;;;;;;5036205;28;20382;-81
2022/02/18 02:58:26;;;;;;;19.27;3.88;;;8.60;99.90;;;;;;5036101;28;20021;-82
2022/02/18 03:00:51;;;;;;;13.65;3.13;;;8.60;99.90;;;;;;5035910;28;20056;-82
2022/02/18 03:03:17;;;;;;;10.35;2.97;;;8.50;99.90;;;;;;5036018;28;20021;-82
2022/02/18 03:05:43;;;;;;;21.98;3.92;;;8.50;99.90;;;;;;5035977;28;20499;-82
2022/02/18 03:08:09;;;;;;;12.32;3.22;;;8.50;99.90;;;;;;5035999;28;20025;-82
2022/02/18 03:10:34;;;;;;;17.52;3.45;;;8.50;99.90;;;;;;5035873;28;20115;-82
2022/02/18 03:13:01;;;;;;;16.67;3.28;;;8.50;99.90;;;;;;5035760;28;20025;-82
2022/02/18 03:15:27;;;;;;;13.15;2.67;;;8.50;99.90;;;;;;5035697;28;20136;-82
2022/02/18 03:17:53;;;;;;;16.70;3.50;;;8.50;99.90;;;;;;5036054;28;20107;-82
2022/02/18 03:20:18;;;;;;;14.93;3.67;;;8.50;99.90;;;;;;5053584;28;20020;-81
2022/02/18 03:22:44;;;;;;;10.10;2.97;;;8.50;99.90;;;;;;5035651;28;20024;-82
2022/02/18 03:25:10;;;;;;;16.38;3.55;;;8.50;99.90;;;;;;5035632;28;20087;-82
2022/02/18 03:27:38;;;;;;;17.42;3.53;;;8.50;99.90;;;;;;5035580;28;20064;-82
2022/02/18 03:30:06;;;;;;;18.13;3.38;;;8.50;99.90;;;;;;5035569;28;20059;-82
2022/02/18 03:32:33;;;;;;;16.58;3.38;;;8.50;99.90;;;;;;5035498;28;20070;-82
2022/02/18 03:35:00;;;;;;;14.63;3.58;;;8.50;99.90;;;;;;5035491;28;20068;-82
2022/02/18 03:37:26;;;;;;;14.23;3.25;;;8.40;99.90;;;;;;5034982;28;20029;-82
2022/02/18 03:39:52;;;;;;;16.40;3.55;;;8.50;99.90;;;;;;5053308;28;20021;-82
2022/02/18 03:42:18;;;;;;;17.55;3.67;;;8.50;99.90;;;;;;5035371;28;20047;-82
2022/02/18 03:44:43;;;;;;;12.73;2.70;;;8.40;99.90;;;;;;5035328;28;20025;-82
2022/02/18 03:47:09;;;;;;;21.63;3.85;;;8.40;99.90;;;;;;5035321;28;20024;-82
2022/02/18 03:49:35;;;;;;;14.13;3.00;;;8.40;99.90;;;;;;5035240;28;20025;-81
2022/02/18 03:52:01;;;;;;;18.25;3.53;;;8.40;99.90;;;;;;5035197;28;20025;-82
2022/02/18 03:54:27;;;;;;;19.17;3.63;;;8.40;99.90;;;;;;5053100;28;20017;-82
2022/02/18 03:56:54;;;;;;;14.93;3.33;;;8.40;99.90;;;;;;5035143;28;20017;-81
2022/02/18 03:59:20;;;;;;;15.38;2.88;;;8.40;99.90;;;;;;5035214;28;20036;-81
2022/02/18 04:01:46;;;;;;;12.63;3.53;;;8.40;99.90;;;;;;5052854;28;20209;-82
2022/02/18 04:04:12;;;;;;;15.15;3.50;;;8.40;99.90;;;;;;5035138;28;20395;-83
2022/02/18 04:06:37;;;;;;;18.20;3.05;;;8.40;99.90;;;;;;5035087;28;20031;-82
2022/02/18 04:09:04;;;;;;;13.82;3.85;;;8.40;99.90;;;;;;5035125;28;20025;-82
2022/02/18 04:11:30;;;;;;;17.40;3.05;;;8.40;99.90;;;;;;5035488;28;20056;-82
2022/02/18 04:13:55;;;;;;;15.52;3.28;;;8.40;99.90;;;;;;5034989;28;20389;-82
2022/02/18 04:16:23;;;;;;;16.30;3.35;;;8.40;99.90;;;;;;5052826;28;20021;-81
2022/02/18 04:18:50;;;;;;;16.23;2.78;;;8.40;99.90;;;;;;5034960;28;20025;-82
2022/02/18 04:21:16;;;;;;;11.38;2.88;;;8.40;99.90;;;;;;5034997;28;20025;-82
2022/02/18 04:23:42;;;;;;;15.00;3.00;;;8.40;99.90;;;;;;5052864;28;20175;-82
2022/02/18 04:26:07;;;;;;;14.05;2.75;;;8.40;99.90;;;;;;5034900;28;20025;-82
2022/02/18 04:28:33;;;;;;;16.42;3.75;;;8.40;99.90;;;;;;5034903;28;20078;-81
2022/02/18 04:30:59;;;;;;;12.45;3.35;;;8.40;99.90;;;;;;5034752;28;20036;-82
2022/02/18 04:33:24;;;;;;;16.05;3.45;;;8.40;99.90;;;;;;5034821;28;20021;-81
2022/02/18 04:35:50;;;;;;;10.02;2.80;;;8.40;99.90;;;;;;5034856;28;20028;-82
2022/02/18 04:38:16;;;;;;;11.07;2.63;;;8.40;99.90;;;;;;5034810;28;20055;-82
2022/02/18 04:40:42;;;;;;;12.63;2.92;;;8.40;99.90;;;;;;5052670;28;20044;-82
2022/02/18 04:43:07;;;;;;;17.23;3.75;;;8.40;99.90;;;;;;5034736;28;20035;-82
2022/02/18 04:45:33;;;;;;;14.93;2.63;;;8.40;99.90;;;;;;5034745;28;20025;-81
2022/02/18 04:47:59;;;;;;;15.30;3.35;;;8.40;99.90;;;;;;5034694;28;20067;-82
2022/02/18 04:50:25;;;;;;;12.98;3.13;;;8.30;99.90;;;;;;5054039;28;20032;-82
2022/02/18 04:52:50;;;;;;;13.57;3.05;;;8.40;99.90;;;;;;5038308;28;20031;-82
2022/02/18 04:55:16;;;;;;;12.55;3.13;;;8.40;99.90;;;;;;5056595;28;20025;-81
2022/02/18 04:57:46;;;;;;;8.77;2.55;;;8.40;99.90;;;;;;5038427;28;20017;-81
2022/02/18 05:00:13;;;;;;;14.48;2.83;;;8.30;99.90;;;;;;5038318;28;20021;-82
2022/02/18 05:02:38;;;;;;;13.23;3.35;;;8.30;99.90;;;;;;5056241;28;20052;-81
2022/02/18 05:05:05;;;;;;;19.55;3.50;;;8.30;99.90;;;;;;5038271;28;20476;-81
2022/02/18 05:07:30;;;;;;;18.58;2.88;;;8.30;99.90;;;;;;5038174;28;20049;-82
2022/02/18 05:09:56;;;;;;;14.75;3.05;;;8.30;99.90;;;;;;5038230;28;20032;-82
2022/02/18 05:12:22;;;;;;;14.10;3.17;;;8.30;99.90;;;;;;5055965;28;20434;-82
2022/02/18 05:14:51;;;;;;;17.50;3.50;;;8.30;99.90;;;;;;5038439;28;20032;-82
2022/02/18 05:17:19;;;;;;;12.48;2.60;;;8.30;99.90;;;;;;5038044;28;20028;-82
2022/02/18 05:19:45;;;;;;;12.48;2.80;;;8.30;99.90;;;;;;5038531;28;20024;-82
2022/02/18 05:22:10;;;;;;;13.07;2.95;;;8.30;99.90;;;;;;5037956;28;20384;-82
2022/02/18 05:24:37;;;;;;;14.98;3.53;;;8.30;99.90;;;;;;5037993;28;20341;-82
2022/02/18 05:27:04;;;;;;;17.63;3.20;;;8.30;99.90;;;;;;5037853;28;20029;-82
2022/02/18 05:29:30;;;;;;;15.65;3.25;;;8.30;99.90;;;;;;5037828;28;20029;-82
2022/02/18 05:31:56;;;;;;;12.45;3.00;;;8.30;99.90;;;;;;5037671;28;20115;-81
2022/02/18 05:34:21;;;;;;;10.82;2.78;;;8.30;99.90;;;;;;5055647;28;20028;-81
2022/02/18 05:36:47;;;;;;;12.98;2.72;;;8.30;99.90;;;;;;5037718;28;20028;-81
2022/02/18 05:39:13;;;;;;;13.95;2.95;;;8.30;99.90;;;;;;5055491;28;20031;-82
2022/02/18 05:41:39;;;;;;;13.73;3.33;;;8.30;99.90;;;;;;5038168;28;20033;-82
2022/02/18 05:44:05;;;;;;;16.77;3.33;;;8.30;99.90;;;;;;5037622;28;20048;-82
2022/02/18 05:46:31;;;;;;;14.38;3.17;;;8.20;99.90;;;;;;5037456;28;20059;-82
2022/02/18 05:48:57;;;;;;;13.93;3.25;;;8.20;99.90;;;;;;5037485;28;20103;-81
2022/02/18 05:51:22;;;;;;;10.15;2.03;;;8.20;99.90;;;;;;5037326;28;20087;-82
2022/02/18 05:53:48;;;;;;;17.45;3.60;;;8.20;99.90;;;;;;5037289;28;20032;-81
2022/02/18 05:56:14;;;;;;;18.13;3.40;;;8.20;99.90;;;;;;5037291;28;20481;-81
2022/02/18 05:58:41;;;;;;;11.57;3.03;;;8.20;99.90;;;;;;5037246;28;20045;-81
2022/02/18 06:01:07;;;;;;;12.82;2.83;;;8.20;99.90;;;;;;5054505;28;20045;-81
2022/02/18 06:03:33;;;;;;;20.98;3.45;;;8.20;99.90;;;;;;5055321;28;20048;-82
2022/02/18 06:05:58;;;;;;;16.27;3.47;;;8.20;99.90;;;;;;5037132;28;20021;-81
2022/02/18 06:08:25;;;;;;;17.42;3.17;;;8.20;99.90;;;;;;5037079;28;20025;-81
2022/02/18 06:10:50;;;;;;;15.27;3.45;;;8.20;99.90;;;;;;5037085;28;20079;-81
2022/02/18 06:13:18;;;;;;;15.07;3.35;;;8.20;99.90;;;;;;5036918;28;20434;-81
2022/02/18 06:15:44;;;;;;;15.95;3.10;;;8.20;99.90;;;;;;5036923;28;20025;-81
2022/02/18 06:18:10;;;;;;;16.67;3.10;;;8.20;99.90;;;;;;5054829;28;20093;-82
2022/02/18 06:20:36;;;;;;;22.95;3.80;;;8.20;99.90;;;;;;5036825;28;20528;-81
2022/02/18 06:23:02;;;;;;;9.93;2.55;;;8.20;99.90;;;;;;5036857;28;20025;-81
2022/02/18 06:25:29;;;;;;;17.55;3.47;;;8.20;99.90;;;;;;5036783;28;20028;-81
2022/02/18 06:28:08;;;;;;;16.15;3.17;;;8.20;99.90;;;;;;5036758;28;20032;-81
2022/02/18 06:30:35;;;;;;;13.00;3.03;;;8.20;99.90;;;;;;5054591;28;20070;-81
2022/02/18 06:33:01;;;;;;;12.30;2.80;;;8.20;99.90;;;;;;5054405;28;20017;-81
2022/02/18 06:35:27;;;;;;;16.90;3.20;;;8.20;99.90;;;;;;5036509;28;20512;-81
2022/02/18 06:37:53;;;;;;;10.98;3.05;;;8.20;99.90;;;;;;5036577;28;20384;-81
2022/02/18 06:40:18;;;;;;;15.68;3.15;;;8.20;99.90;;;;;;5036515;28;20021;-81
2022/02/18 06:42:44;;;;;;;15.10;2.85;;;8.20;99.90;;;;;;5036446;28;20051;-81
2022/02/18 06:45:10;;;;;;;12.40;3.28;;;8.20;99.90;;;;;;5036351;28;20489;-81
2022/02/18 06:47:36;;;;;;;17.40;3.03;;;8.20;99.90;;;;;;5036339;28;20388;-82
2022/02/18 06:50:02;;;;;;;15.13;3.15;;;8.20;99.90;;;;;;5054226;28;20032;-82
2022/02/18 06:52:27;;;;;;;11.35;2.88;;;8.20;99.90;;;;;;5036113;28;20415;-81
2022/02/18 06:54:53;;;;;;;16.10;3.33;;;8.20;99.90;;;;;;5036258;28;20082;-81
2022/02/18 06:57:18;;;;;;;13.77;2.95;;;8.20;99.90;;;;;;5054356;28;20021;-81
2022/02/18 06:59:44;;;;;;;14.60;3.22;;;8.20;99.90;;;;;;5036174;28;20104;-81
2022/02/18 07:02:11;;;;;;;15.57;3.17;;;8.20;99.90;;;;;;5032615;28;20053;-81
2022/02/18 07:04:36;;;;;;;17.95;3.17;;;8.20;99.90;;;;;;5032797;28;20104;-81
2022/02/18 07:07:02;;;;;;;12.10;2.78;;;8.20;99.90;;;;;;5032751;28;20501;-80
2022/02/18 07:09:28;;;;;;;14.18;3.03;;;8.20;99.90;;;;;;5032681;28;20068;-81
2022/02/18 07:11:54;;;;;;;15.32;3.13;;;8.20;99.90;;;;;;5032341;28;20436;-81
2022/02/18 07:14:19;;;;;;;13.13;2.63;;;8.20;99.90;;;;;;5033242;28;20076;-81
2022/02/18 07:16:45;;;;;;;10.43;3.05;;;8.20;99.90;;;;;;5034069;28;20023;-81
2022/02/18 07:19:12;;;;;;;14.57;3.25;;;8.20;99.90;;;;;;5032490;28;20025;-82
2022/02/18 07:21:38;;;;;;;11.90;2.80;;;8.20;99.90;;;;;;5032450;28;20121;-81
2022/02/18 07:24:12;;;;;;;13.13;3.20;;;8.20;99.90;;;;;;5032383;28;20036;-82
2022/02/18 07:26:38;;;;;;;13.77;3.30;;;8.20;99.90;;;;;;5032376;28;20361;-82
2022/02/18 07:29:04;;;;;;;16.83;3.53;;;8.20;99.90;;;;;;5032296;28;20477;-81
2022/02/18 07:31:30;;;;;;;13.60;2.67;;;8.20;99.90;;;;;;5033754;28;20480;-81
2022/02/18 07:33:56;;;;;;;12.65;2.80;;;8.20;99.90;;;;;;5032259;28;20174;-81
2022/02/18 07:36:22;;;;;;;9.50;2.58;;;8.20;99.90;;;;;;5032203;28;20400;-81
2022/02/18 07:38:48;;;;;;;10.05;2.50;;;8.20;99.90;;;;;;5032166;28;20100;-81
2022/02/18 07:41:14;;;;;;;13.75;2.90;;;8.20;99.90;;;;;;5032151;28;20060;-81
2022/02/18 07:43:40;;;;;;;10.35;2.78;;;8.20;99.90;;;;;;5032110;28;20068;-81
2022/02/18 07:46:08;;;;;;;13.57;2.80;;;8.30;99.90;;;;;;5032192;28;20084;-81
2022/02/18 07:48:34;;;;;;;10.88;2.50;;;8.20;99.90;;;;;;5032330;28;20029;-81
2022/02/18 07:51:00;;;;;;;13.10;3.00;;;8.30;99.90;;;;;;5032013;28;20478;-81
2022/02/18 07:53:26;;;;;;;11.90;2.85;;;8.30;99.90;;;;;;5033118;28;20029;-81
2022/02/18 07:55:52;;;;;;;8.25;2.40;;;8.30;99.90;;;;;;5031974;28;20026;-81
2022/02/18 07:58:18;;;;;;;9.10;2.53;;;8.30;99.90;;;;;;5031868;28;20104;-81
2022/02/18 08:00:43;;;;;;;15.23;2.67;;;8.30;99.90;;;;;;5034221;28;20041;-82
2022/02/18 08:03:09;;;;;;;13.98;2.70;;;8.30;99.90;;;;;;5035207;28;20028;-81
2022/02/18 08:05:35;;;;;;;14.15;2.67;;;8.30;99.90;;;;;;5035079;28;20025;-82
2022/02/18 08:08:01;;;;;;;11.88;2.55;;;8.30;99.90;;;;;;5035106;28;20106;-81
2022/02/18 08:10:28;;;;;;;14.30;2.72;;;8.30;99.90;;;;;;5035087;28;20033;-81
2022/02/18 08:12:54;;;;;;;12.82;3.10;;;8.30;99.90;;;;;;5052911;28;20021;-82
2022/02/18 08:15:20;;;;;;;12.27;2.83;;;8.30;99.90;;;;;;5035003;28;20017;-81
2022/02/18 08:17:46;;;;;;;10.45;2.50;;;8.40;99.90;;;;;;5052877;28;20028;-81
2022/02/18 08:20:12;;;;;;;8.55;2.17;;;8.50;99.90;;;;;;5053142;28;20017;-81
2022/02/18 08:22:38;;;;;;;12.50;2.40;;;8.60;99.90;;;;;;5034969;28;20388;-82
2022/02/18 08:25:05;;;;;;;15.10;2.90;;;8.70;99.90;;;;;;5037682;28;20337;-81
2022/02/18 08:27:31;;;;;;;17.33;3.05;;;9.00;99.90;;;;;;5038910;28;20021;-81
2022/02/18 08:29:57;;;;;;;10.02;2.40;;;9.10;99.90;;;;;;5038984;28;20374;-81
2022/02/18 08:32:23;;;;;;;10.80;2.75;;;9.30;99.90;;;;;;5038774;28;20021;-81
2022/02/18 08:34:48;;;;;;;7.93;2.47;;;9.30;99.90;;;;;;5038846;28;20025;-81
2022/02/18 08:37:14;;;;;;;8.75;2.40;;;9.30;99.90;;;;;;5039088;28;20021;-81
2022/02/18 08:39:40;;;;;;;9.80;2.60;;;9.50;99.90;;;;;;5038752;28;20066;-81
2022/02/18 08:42:07;;;;;;;7.80;2.53;;;9.70;99.90;;;;;;5039031;28;20029;-81
2022/02/18 08:44:33;;;;;;;10.85;2.70;;;9.70;99.90;;;;;;5038670;28;20067;-81
2022/02/18 08:47:00;;;;;;;9.00;2.20;;;9.50;99.90;;;;;;5038620;28;20025;-81
2022/02/18 08:49:26;;;;;;;9.55;2.25;;;9.50;99.90;;;;;;5038552;28;20477;-81
2022/02/18 08:51:52;;;;;;;10.85;2.33;;;9.70;99.90;;;;;;5038370;28;20060;-81
2022/02/18 08:54:18;;;;;;;10.60;2.30;;;10.00;99.90;;;;;;5038547;28;20029;-81
2022/02/18 08:56:45;;;;;;;7.78;2.08;;;10.10;99.90;;;;;;5038470;28;20480;-81
2022/02/18 08:59:10;;;;;;;10.15;2.53;;;10.30;99.90;;;;;;5038435;28;20021;-82
2022/02/18 09:01:36;;;;;;;9.35;2.42;;;10.50;99.90;;;;;;5038188;28;20048;-81
2022/02/18 09:04:03;;;;;;;9.15;2.25;;;10.70;99.90;;;;;;5056235;28;20413;-81
2022/02/18 09:06:28;;;;;;;9.13;2.22;;;10.70;99.90;;;;;;5056187;28;20389;-82
2022/02/18 09:08:54;;;;;;;8.80;2.05;;;10.80;99.90;;;;;;5038232;28;20029;-81
2022/02/18 09:11:20;;;;;;;7.10;1.88;;;10.70;99.90;;;;;;5038067;28;20032;-81
2022/02/18 09:13:47;;;;;;;15.57;2.33;;;10.80;99.90;;;;;;5038045;28;20427;-81
2022/02/18 09:16:13;;;;;;;9.95;2.10;;;10.90;99.90;;;;;;5038036;28;20017;-81
2022/02/18 09:18:39;;;;;;;9.63;2.10;;;10.80;99.90;;;;;;5038033;28;20028;-81
2022/02/18 09:21:07;;;;;;;8.20;1.70;;;10.90;99.90;;;;;;5037989;28;20025;-81
2022/02/18 09:23:33;;;;;;;11.02;2.13;;;11.00;99.90;;;;;;5037963;28;20028;-82
2022/02/18 09:25:58;;;;;;;10.32;2.38;;;11.00;99.90;;;;;;5037865;28;20033;-82
2022/02/18 09:28:27;;;;;;;7.45;1.80;;;10.80;99.90;;;;;;5037897;28;20032;-82
2022/02/18 09:30:55;;;;;;;6.20;1.63;;;10.80;99.90;;;;;;5037835;28;20067;-81
2022/02/18 09:33:21;;;;;;;6.85;1.90;;;10.80;99.90;;;;;;5037753;28;20384;-82
2022/02/18 09:35:47;;;;;;;5.00;1.60;;;10.70;99.90;;;;;;5037822;28;20099;-82
2022/02/18 09:38:13;;;;;;;6.30;1.75;;;10.70;99.90;;;;;;5037645;28;20061;-81
2022/02/18 09:40:40;;;;;;;10.75;2.28;;;10.80;99.90;;;;;;5037678;28;20481;-81
2022/02/18 09:43:06;;;;;;;3.85;1.73;;;11.00;99.90;;;;;;5037684;28;20362;-81
2022/02/18 09:45:32;;;;;;;8.90;1.65;;;11.00;99.90;;;;;;5037479;28;20060;-81
2022/02/18 09:47:58;;;;;;;6.97;1.63;;;11.10;99.90;;;;;;5037559;28;20485;-81
2022/02/18 09:50:24;;;;;;;5.57;1.38;;;11.10;99.90;;;;;;5037448;28;20025;-81
2022/02/18 09:52:50;;;;;;;5.97;1.67;;;11.10;99.90;;;;;;5037260;28;20032;-80
2022/02/18 09:55:16;;;;;;;4.55;1.55;;;11.20;99.90;;;;;;5037300;28;20087;-81
2022/02/18 09:57:45;;;;;;;6.22;1.30;;;11.30;99.90;;;;;;5037325;28;20116;-81
2022/02/18 10:00:12;;;;;;;6.47;1.63;;;11.20;99.90;;;;;;5055092;28;20032;-81
2022/02/18 10:02:38;;;;;;;6.00;1.90;;;11.10;99.90;;;;;;5037039;28;20059;-81
2022/02/18 10:05:04;;;;;;;5.53;1.70;;;11.10;99.90;;;;;;5055321;28;20025;-82
2022/02/18 10:07:54;;;;;;;3.75;1.40;;;11.10;99.90;;;;;;5037121;28;20057;-81
2022/02/18 10:10:19;;;;;;;6.00;1.38;;;11.10;99.90;;;;;;5036954;28;20112;-81
2022/02/18 10:12:46;;;;;;;6.28;1.48;;;11.10;99.90;;;;;;5054868;28;20108;-81
2022/02/18 10:15:12;;;;;;;2.83;1.10;;;11.10;99.90;;;;;;5036988;28;20059;-81
2022/02/18 10:17:42;;;;;;;4.38;1.45;;;10.90;99.90;;;;;;5036944;28;20029;-81
2022/02/18 10:20:22;;;;;;;8.13;1.65;;;10.70;99.90;;;;;;5036876;28;20028;-82
2022/02/18 10:23:00;;;;;;;4.65;1.40;;;10.60;99.90;;;;;;5054749;28;20025;-81
2022/02/18 10:25:29;;;;;;;8.35;1.48;;;10.60;99.90;;;;;;5036769;28;20469;-81
2022/02/18 10:27:56;;;;;;;4.32;1.20;;;10.50;99.90;;;;;;5036797;28;20059;-81
2022/02/18 10:30:23;;;;;;;4.70;1.23;;;10.40;99.90;;;;;;5036959;28;20025;-81
2022/02/18 10:32:50;;;;;;;8.40;1.55;;;10.30;99.90;;;;;;5036528;28;20483;-81
2022/02/18 10:35:17;;;;;;;4.10;1.38;;;10.30;99.90;;;;;;5036564;28;20021;-81
2022/02/18 10:37:54;;;;;;;5.72;1.20;;;10.20;99.90;;;;;;5036575;28;20029;-81
2022/02/18 10:40:21;;;;;;;5.00;0.95;;;10.20;99.90;;;;;;5036545;28;20017;-81
2022/02/18 10:42:49;;;;;;;4.18;1.17;;;10.10;99.90;;;;;;5054380;28;20114;-80
2022/02/18 10:45:27;;;;;;;4.53;0.93;;;10.10;99.90;;;;;;5036341;28;20033;-81
2022/02/18 10:48:19;;;;;;;2.78;1.02;;;10.10;99.90;;;;;;5036458;28;20119;-81
2022/02/18 10:51:05;;;;;;;3.38;1.10;;;10.00;99.90;;;;;;5054277;28;20025;-81
2022/02/18 10:53:36;;;;;;;3.13;0.90;;;10.10;99.90;;;;;;5036210;28;20391;-81
2022/02/18 10:56:07;;;;;;;5.25;1.13;;;10.10;99.90;;;;;;5036329;28;20021;-80
2022/02/18 10:58:37;;;;;;;3.53;1.05;;;10.10;99.90;;;;;;5036197;28;20035;-80
2022/02/18 11:01:10;;;;;;;4.07;1.17;;;10.10;99.90;;;;;;5035897;28;20496;-81
2022/02/18 11:03:38;;;;;;;3.17;1.00;;;10.20;99.90;;;;;;5036122;28;20484;-81
2022/02/18 11:06:10;;;;;;;2.60;0.88;;;10.20;99.90;;;;;;5036085;28;20111;-81
2022/02/18 11:08:36;;;;;;;2.67;0.98;;;10.20;99.90;;;;;;5053886;28;20072;-81
2022/02/18 11:11:22;;;;;;;5.22;1.10;;;10.20;99.90;;;;;;5035987;28;20485;-81
2022/02/18 11:13:49;;;;;;;1.60;0.70;;;10.20;99.90;;;;;;5036072;28;20021;-81
2022/02/18 11:16:17;;;;;;;3.25;0.75;;;10.30;99.90;;;;;;5035869;28;20024;-83
2022/02/18 11:18:45;;;;;;;4.22;0.88;;;10.30;99.90;;;;;;5035832;28;20021;-82
2022/02/18 11:21:12;;;;;;;2.42;0.98;;;10.30;99.90;;;;;;5035816;28;20084;-81
2022/02/18 11:23:42;;;;;;;5.55;0.80;;;10.40;99.90;;;;;;5035807;28;20476;-80
2022/02/18 11:26:15;;;;;;;2.78;0.93;;;10.50;99.90;;;;;;5035776;28;20040;-82
2022/02/18 11:28:43;;;;;;;4.05;0.80;;;10.60;99.90;;;;;;5035747;28;20028;-81
2022/02/18 11:31:20;;;;;;;3.28;0.77;;;10.60;99.90;;;;;;5053551;28;20025;-81
2022/02/18 11:34:09;;;;;;;2.72;0.98;;;10.50;99.90;;;;;;5035725;28;20032;-81
2022/02/18 11:37:09;;;;;;;2.05;0.80;;;10.50;99.90;;;;;;5053503;28;20055;-83
2022/02/18 11:39:50;;;;;;;3.60;0.95;;;10.50;99.90;;;;;;5035550;28;20106;-83
2022/02/18 11:42:32;;;;;;;4.63;0.98;;;10.50;99.90;;;;;;5035528;28;20032;-81
2022/02/18 11:44:58;;;;;;;4.97;1.20;;;10.40;99.90;;;;;;5035498;28;20039;-80
2022/02/18 11:47:24;;;;;;;4.57;1.10;;;10.50;99.90;;;;;;5035450;28;20021;-81
2022/02/18 11:49:52;;;;;;;6.13;1.10;;;10.40;99.90;;;;;;5035324;28;20029;-81
2022/02/18 11:52:20;;;;;;;7.32;1.00;;;10.40;99.90;;;;;;5053007;28;20051;-81
2022/02/18 11:54:47;;;;;;;2.47;0.65;;;10.40;99.90;;;;;;5035280;28;20539;-81
2022/02/18 11:57:21;;;;;;;3.90;0.93;;;10.60;99.90;;;;;;5035235;28;20049;-82
2022/02/18 12:00:01;;;;;;;6.15;1.00;;;10.60;99.90;;;;;;5034834;28;20021;-82
2022/02/18 12:02:48;;;;;;;8.57;0.80;;;11.40;99.90;;;;;;5052841;28;20049;-81
2022/02/18 12:05:19;;;;;;;6.22;1.30;;;12.10;99.90;;;;;;5053048;28;20100;-81
2022/02/18 12:07:54;;;;;;;6.32;0.70;;;12.10;99.90;;;;;;5035025;28;20028;-81
2022/02/18 12:10:27;;;;;;;5.32;0.90;;;11.80;99.90;;;;;;5052934;28;20025;-81
2022/02/18 12:13:05;;;;;;;7.25;1.30;;;11.60;99.90;;;;;;5034990;28;20032;-83
2022/02/18 12:15:36;;;;;;;5.50;0.75;;;11.50;99.90;;;;;;5035095;28;20025;-80
2022/02/18 12:18:04;;;;;;;2.85;0.80;;;11.20;99.90;;;;;;5053169;28;20021;-81
2022/02/18 12:20:41;;;;;;;4.15;1.00;;;11.10;99.90;;;;;;5034976;28;20029;-81
2022/02/18 12:23:28;;;;;;;2.90;0.85;;;11.00;99.90;;;;;;5035957;28;20582;-81
2022/02/18 12:26:19;;;;;;;9.43;1.13;;;10.90;99.90;;;;;;5035042;28;20029;-81
2022/02/18 12:28:46;;;;;;;4.15;1.17;;;10.90;99.90;;;;;;5034961;28;20032;-82
2022/02/18 12:31:12;;;;;;;8.35;1.17;;;10.90;99.90;;;;;;5052773;28;20029;-81
2022/02/18 12:33:39;;;;;;;4.05;1.20;;;10.90;99.90;;;;;;5034852;28;20025;-81
2022/02/18 12:36:13;;;;;;;2.60;0.88;;;10.90;99.90;;;;;;5034908;28;20025;-81
2022/02/18 12:38:47;;;;;;;11.00;1.40;;;10.90;99.90;;;;;;5034919;28;20444;-82
2022/02/18 12:41:16;;;;;;;3.40;1.00;;;10.80;99.90;;;;;;5034868;28;20075;-81
2022/02/18 12:43:42;;;;;;;7.13;0.90;;;10.80;99.90;;;;;;5034764;28;20116;-82
2022/02/18 12:46:08;;;;;;;1.83;0.80;;;10.70;99.90;;;;;;5034773;28;20021;-81
2022/02/18 12:48:42;;;;;;;7.13;1.30;;;10.70;99.90;;;;;;5034967;28;20021;-81
2022/02/18 12:51:10;;;;;;;5.47;1.30;;;10.60;99.90;;;;;;5034827;28;20021;-81
2022/02/18 12:53:36;;;;;;;6.30;1.10;;;10.60;99.90;;;;;;5034639;28;20560;-82